Time;durP1;ratioP1;P1;durP2;ratioP2;P2;SDS_P1;SDS_P2;PMS_P1;PMS_P2;Temp;Humidity;BMP_temperature;BMP_pressure;BME280_temperature;BME280_humidity;BME280_pressure;Samples;Min_cycle;Max_cycle;Signal;HPM_P1;HPM_P2
2022/11/21 00:00:44;;;;;;;;;;;10.60;69.30;;;;;;4992645;28;19945;-50
2022/11/21 00:03:11;;;;;;;;;;;10.60;69.40;;;;;;4992636;28;20406;-51
2022/11/21 00:05:42;;;;;;;;;;;10.60;69.30;;;;;;4993253;28;20412;-49
2022/11/21 00:08:09;;;;;;;;;;;10.60;69.40;;;;;;4993538;28;19926;-47
2022/11/21 00:10:37;;;;;;;;;;;10.60;69.60;;;;;;4993739;28;19930;-51
2022/11/21 00:13:06;;;;;;;;;;;10.60;69.80;;;;;;4992496;28;19952;-47
2022/11/21 00:15:34;;;;;;;;;;;10.60;70.00;;;;;;4993370;28;19932;-48
2022/11/21 00:18:02;;;;;;;;;;;10.60;69.80;;;;;;4993225;28;20389;-47
2022/11/21 00:20:31;;;;;;;;;;;10.60;69.80;;;;;;4993609;28;20476;-49
2022/11/21 00:22:57;;;;;;;;;;;10.60;69.80;;;;;;4991761;28;19926;-48
2022/11/21 00:25:27;;;;;;;;;;;10.60;69.70;;;;;;4992881;28;20045;-47
2022/11/21 00:27:53;;;;;;;;;;;10.60;69.80;;;;;;4992549;28;19929;-49
2022/11/21 00:30:22;;;;;;;;;;;10.60;69.70;;;;;;4993246;28;20331;-48
2022/11/21 00:32:49;;;;;;;;;;;10.60;69.70;;;;;;4992954;28;19965;-51
2022/11/21 00:35:15;;;;;;;;;;;10.60;69.60;;;;;;4992320;28;19926;-51
2022/11/21 00:37:42;;;;;;;;;;;10.60;69.70;;;;;;4992268;28;19933;-51
2022/11/21 00:40:18;;;;;;;;;;;10.60;69.60;;;;;;4992246;28;19925;-48
2022/11/21 00:42:45;;;;;;;;;;;10.60;69.70;;;;;;4991943;28;19930;-48
2022/11/21 00:45:12;;;;;;;;;;;10.60;69.80;;;;;;4992896;28;19926;-50
2022/11/21 00:47:39;;;;;;;;;;;10.60;69.60;;;;;;4992573;28;19932;-47
2022/11/21 00:50:13;;;;;;;;;;;10.60;69.70;;;;;;4992042;28;19932;-48
2022/11/21 00:52:39;;;;;;;;;;;10.60;69.70;;;;;;4992241;28;20397;-48
2022/11/21 00:55:12;;;;;;;;;;;10.60;69.70;;;;;;4992175;28;19932;-48
2022/11/21 00:57:38;;;;;;;;;;;10.60;69.70;;;;;;4992343;28;19926;-49
2022/11/21 01:00:06;;;;;;;;;;;10.60;69.80;;;;;;4991284;28;19973;-49
2022/11/21 01:02:33;;;;;;;;;;;10.60;69.80;;;;;;4992374;28;20482;-51
2022/11/21 01:05:03;;;;;;;;;;;10.60;69.70;;;;;;4992561;28;20036;-49
2022/11/21 01:07:34;;;;;;;;;;;10.60;69.70;;;;;;4991473;28;19973;-49
2022/11/21 01:10:01;;;;;;;;;;;10.60;69.60;;;;;;4992418;28;19929;-51
2022/11/21 01:12:30;;;;;;;;;;;10.60;69.70;;;;;;4991360;28;19926;-51
2022/11/21 01:14:56;;;;;;;;;;;10.60;69.70;;;;;;4992403;28;19937;-49
2022/11/21 01:17:23;;;;;;;;;;;10.60;69.60;;;;;;4991203;28;19926;-50
2022/11/21 01:19:54;;;;;;;;;;;10.50;69.60;;;;;;4990748;28;20366;-52
2022/11/21 01:22:24;;;;;;;;;;;10.50;69.30;;;;;;4986988;28;20165;-45
2022/11/21 01:24:53;;;;;;;;;;;10.50;69.30;;;;;;4991594;28;20016;-48
2022/11/21 01:27:22;;;;;;;;;;;10.50;69.30;;;;;;4991280;28;19933;-48
2022/11/21 01:29:51;;;;;;;;;;;10.40;69.30;;;;;;4990920;28;20013;-52
2022/11/21 01:32:17;;;;;;;;;;;10.40;69.30;;;;;;4992018;28;19926;-46
2022/11/21 01:34:44;;;;;;;;;;;10.30;69.40;;;;;;4991029;28;19932;-48
2022/11/21 01:37:13;;;;;;;;;;;10.30;69.50;;;;;;4990972;28;19932;-48
2022/11/21 01:39:39;;;;;;;;;;;10.30;69.60;;;;;;4991447;28;19993;-49
2022/11/21 01:42:08;;;;;;;;;;;10.30;69.70;;;;;;4991645;28;19936;-47
2022/11/21 01:44:52;;;;;;;;;;;10.30;69.80;;;;;;4991986;28;19929;-48
2022/11/21 01:47:21;;;;;;;;;;;10.30;69.70;;;;;;4990897;28;19973;-51
2022/11/21 01:49:50;;;;;;;;;;;10.30;69.70;;;;;;4990336;28;19949;-51
2022/11/21 01:52:28;;;;;;;;;;;10.20;69.60;;;;;;4991294;28;19936;-50
2022/11/21 01:55:03;;;;;;;;;;;10.20;69.50;;;;;;4991651;28;19972;-47
2022/11/21 01:57:29;;;;;;;;;;;10.20;69.50;;;;;;4990900;28;19957;-50
2022/11/21 02:00:05;;;;;;;;;;;10.20;69.50;;;;;;4991398;28;19926;-48
2022/11/21 02:02:36;;;;;;;;;;;10.10;69.50;;;;;;4991721;28;19940;-51
2022/11/21 02:05:05;;;;;;;;;;;10.10;69.40;;;;;;4991146;28;19981;-49
2022/11/21 02:07:33;;;;;;;;;;;10.10;69.20;;;;;;4991075;28;19958;-48
2022/11/21 02:10:04;;;;;;;;;;;10.00;69.20;;;;;;4983668;28;19929;-47
2022/11/21 02:12:34;;;;;;;;;;;10.00;69.20;;;;;;4991115;28;20416;-50
2022/11/21 02:15:01;;;;;;;;;;;10.00;69.20;;;;;;4988661;28;19933;-51
2022/11/21 02:17:28;;;;;;;;;;;9.90;69.10;;;;;;4991010;28;20473;-49
2022/11/21 02:19:56;;;;;;;;;;;9.90;69.20;;;;;;4991516;28;19933;-47
2022/11/21 02:22:31;;;;;;;;;;;9.90;69.30;;;;;;4991261;28;19932;-51
2022/11/21 02:25:05;;;;;;;;;;;9.80;69.30;;;;;;4994625;28;20424;-48
2022/11/21 02:27:34;;;;;;;;;;;9.80;69.40;;;;;;4995067;28;20357;-51
2022/11/21 02:30:02;;;;;;;;;;;9.80;69.50;;;;;;4995519;28;19961;-48
2022/11/21 02:32:31;;;;;;;;;;;9.80;69.50;;;;;;4995315;28;19925;-51
2022/11/21 02:34:58;;;;;;;;;;;9.70;69.50;;;;;;4993804;28;19926;-51
2022/11/21 02:37:30;;;;;;;;;;;9.70;69.50;;;;;;4994283;28;19933;-48
2022/11/21 02:39:59;;;;;;;;;;;9.70;70.20;;;;;;4994658;28;19936;-47
2022/11/21 02:42:34;;;;;;;;;;;9.70;69.60;;;;;;4994850;28;19926;-48
2022/11/21 02:45:18;;;;;;;;;;;9.70;69.60;;;;;;5010160;28;20398;-51
2022/11/21 02:47:52;;;;;;;;;;;9.60;69.70;;;;;;4994654;28;19952;-48
2022/11/21 02:50:27;;;;;;;;;;;9.60;69.90;;;;;;4992923;28;20017;-49
2022/11/21 02:52:54;;;;;;;;;;;9.60;70.10;;;;;;4993788;28;20453;-51
2022/11/21 02:55:23;;;;;;;;;;;9.70;70.40;;;;;;4994499;28;19930;-52
2022/11/21 02:57:52;;;;;;;;;;;9.70;70.50;;;;;;4994481;28;20422;-48
2022/11/21 03:00:27;;;;;;;;;;;9.70;70.60;;;;;;4994952;28;20345;-52
2022/11/21 03:02:56;;;;;;;;;;;9.70;70.60;;;;;;4993873;28;19932;-50
2022/11/21 03:05:25;;;;;;;;;;;9.80;70.50;;;;;;4994823;28;19925;-46
2022/11/21 03:07:56;;;;;;;;;;;9.80;70.50;;;;;;4994228;28;20649;-52
2022/11/21 03:10:22;;;;;;;;;;;9.90;70.50;;;;;;4993748;28;19926;-51
2022/11/21 03:12:59;;;;;;;;;;;9.90;70.50;;;;;;4993588;28;20428;-51
2022/11/21 03:15:28;;;;;;;;;;;9.90;70.40;;;;;;4994428;28;20465;-47
2022/11/21 03:17:55;;;;;;;;;;;9.90;70.50;;;;;;4994800;28;20020;-47
2022/11/21 03:20:22;;;;;;;;;;;9.90;70.50;;;;;;4993373;28;20055;-47
2022/11/21 03:22:50;;;;;;;;;;;10.00;70.50;;;;;;4994374;28;19933;-48
2022/11/21 03:25:17;;;;;;;;;;;10.00;70.50;;;;;;4990182;28;20487;-52
2022/11/21 03:27:43;;;;;;;;;;;10.00;70.40;;;;;;4974563;28;19932;-47
2022/11/21 03:30:12;;;;;;;;;;;10.10;70.60;;;;;;4993042;28;20331;-46
2022/11/21 03:32:38;;;;;;;;;;;10.10;70.60;;;;;;4993604;28;19936;-48
2022/11/21 03:35:05;;;;;;;;;;;10.10;70.50;;;;;;4993366;28;19980;-51
2022/11/21 03:37:31;;;;;;;;;;;10.10;70.50;;;;;;4993490;28;19925;-47
2022/11/21 03:40:00;;;;;;;;;;;10.20;70.50;;;;;;4993548;28;19933;-49
2022/11/21 03:42:29;;;;;;;;;;;10.20;70.40;;;;;;4994305;28;19926;-51
2022/11/21 03:44:55;;;;;;;;;;;10.20;70.40;;;;;;4993869;28;19933;-48
2022/11/21 03:47:23;;;;;;;;;;;10.20;70.40;;;;;;4993608;28;20024;-52
2022/11/21 03:49:51;;;;;;;;;;;10.20;70.40;;;;;;4990953;28;19925;-47
2022/11/21 03:52:17;;;;;;;;;;;10.20;70.40;;;;;;4993567;28;19965;-48
2022/11/21 03:54:44;;;;;;;;;;;10.30;70.40;;;;;;4992724;28;20308;-50
2022/11/21 03:57:12;;;;;;;;;;;10.30;70.40;;;;;;4992546;28;19926;-50
2022/11/21 03:59:38;;;;;;;;;;;10.30;70.40;;;;;;4993377;28;20394;-48
2022/11/21 04:02:05;;;;;;;;;;;10.30;70.40;;;;;;4993698;28;19925;-52
2022/11/21 04:04:33;;;;;;;;;;;10.30;70.40;;;;;;4993733;28;19965;-52
2022/11/21 04:07:00;;;;;;;;;;;10.40;70.50;;;;;;4991842;28;19936;-50
2022/11/21 04:09:26;;;;;;;;;;;10.40;70.50;;;;;;4993447;28;19930;-48
2022/11/21 04:11:56;;;;;;;;;;;10.40;70.40;;;;;;4993135;28;19926;-46
2022/11/21 04:14:27;;;;;;;;;;;10.40;70.40;;;;;;4993656;28;19968;-48
2022/11/21 04:16:56;;;;;;;;;;;10.40;70.40;;;;;;4992447;28;19926;-48
2022/11/21 04:19:25;;;;;;;;;;;10.40;70.30;;;;;;4993258;28;19926;-46
2022/11/21 04:21:52;;;;;;;;;;;10.40;70.30;;;;;;4993090;28;19926;-52
2022/11/21 04:24:31;;;;;;;;;;;10.40;70.30;;;;;;4993148;28;19940;-51
2022/11/21 04:27:05;;;;;;;;;;;10.40;70.20;;;;;;4992031;28;20385;-47
2022/11/21 04:29:34;;;;;;;;;;;10.40;70.20;;;;;;4993179;28;19936;-47
2022/11/21 04:32:00;;;;;;;;;;;10.50;70.20;;;;;;4993003;28;19926;-52
2022/11/21 04:34:29;;;;;;;;;;;10.50;70.20;;;;;;4992281;28;19930;-47
2022/11/21 04:36:56;;;;;;;;;;;10.50;70.10;;;;;;5006469;28;20349;-46
2022/11/21 04:39:23;;;;;;;;;;;10.50;70.10;;;;;;4992809;28;19980;-48
2022/11/21 04:41:52;;;;;;;;;;;10.50;70.10;;;;;;4992936;28;19925;-51
2022/11/21 04:44:18;;;;;;;;;;;10.40;69.90;;;;;;4992265;28;19932;-51
2022/11/21 04:46:46;;;;;;;;;;;10.40;69.80;;;;;;4992236;28;19925;-51
2022/11/21 04:49:17;;;;;;;;;;;10.40;69.90;;;;;;4991539;28;20017;-52
2022/11/21 04:51:47;;;;;;;;;;;10.40;69.90;;;;;;4990351;28;20004;-51
2022/11/21 04:54:14;;;;;;;;;;;10.40;69.90;;;;;;4992640;28;19957;-47
2022/11/21 04:56:40;;;;;;;;;;;10.40;69.80;;;;;;4992304;28;19933;-48
2022/11/21 04:59:11;;;;;;;;;;;10.40;69.90;;;;;;4991945;28;19952;-50
2022/11/21 05:01:38;;;;;;;;;;;10.40;69.90;;;;;;4992193;28;19942;-47
2022/11/21 05:04:08;;;;;;;;;;;10.40;70.00;;;;;;4991739;28;19930;-48
2022/11/21 05:06:34;;;;;;;;;;;10.30;70.00;;;;;;4991901;28;19951;-48
2022/11/21 05:09:01;;;;;;;;;;;10.40;70.10;;;;;;4984538;28;20294;-47
2022/11/21 05:14:19;;;;;;;;;;;10.40;70.00;;;;;;4991648;28;19937;-47
2022/11/21 05:16:49;;;;;;;;;;;10.40;70.00;;;;;;4992027;28;19948;-47
2022/11/21 05:19:15;;;;;;;;;;;10.40;70.60;;;;;;4992227;28;19965;-50
2022/11/21 05:21:43;;;;;;;;;;;10.30;70.00;;;;;;4991965;28;19932;-51
2022/11/21 05:24:09;;;;;;;;;;;10.30;70.00;;;;;;4991966;28;19968;-47
2022/11/21 05:26:36;;;;;;;;;;;10.40;70.00;;;;;;4991710;28;19926;-48
2022/11/21 05:29:06;;;;;;;;;;;10.30;70.00;;;;;;4992228;28;19926;-52
2022/11/21 05:31:32;;;;;;;;;;;10.30;69.90;;;;;;4991578;28;19926;-46
2022/11/21 05:34:05;;;;;;;;;;;10.30;69.90;;;;;;4991019;28;20390;-52
2022/11/21 05:36:31;;;;;;;;;;;10.30;70.00;;;;;;4991617;28;19926;-48
2022/11/21 05:38:58;;;;;;;;;;;10.30;69.90;;;;;;4992152;28;19936;-51
2022/11/21 05:41:24;;;;;;;;;;;10.30;70.00;;;;;;4990499;28;19926;-48
2022/11/21 05:43:53;;;;;;;;;;;10.30;70.00;;;;;;4991210;28;19933;-47
2022/11/21 05:46:21;;;;;;;;;;;10.30;70.00;;;;;;4991556;28;19926;-50
2022/11/21 05:48:49;;;;;;;;;;;10.30;70.10;;;;;;4990140;28;19984;-47
2022/11/21 05:51:16;;;;;;;;;;;10.30;70.10;;;;;;4991525;28;19937;-48
2022/11/21 05:53:43;;;;;;;;;;;10.30;70.10;;;;;;4991664;28;19933;-50
2022/11/21 05:56:11;;;;;;;;;;;10.20;70.00;;;;;;4991406;28;20393;-48
2022/11/21 05:58:38;;;;;;;;;;;10.30;70.10;;;;;;4990628;28;19929;-49
2022/11/21 06:01:07;;;;;;;;;;;10.30;70.10;;;;;;4991027;28;20060;-50
2022/11/21 06:03:36;;;;;;;;;;;10.30;70.10;;;;;;4988219;28;19926;-48
2022/11/21 06:06:03;;;;;;;;;;;10.30;70.00;;;;;;4972293;28;19927;-49
2022/11/21 06:08:31;;;;;;;;;;;10.30;70.00;;;;;;4980436;28;19933;-49
2022/11/21 06:11:00;;;;;;;;;;;10.20;69.90;;;;;;4990262;28;19930;-51
2022/11/21 06:13:27;;;;;;;;;;;10.20;69.80;;;;;;4992133;28;19932;-47
2022/11/21 06:16:17;;;;;;;;;;;10.20;69.80;;;;;;4991485;28;20365;-48
2022/11/21 06:18:44;;;;;;;;;;;10.20;69.90;;;;;;4990013;28;19926;-48
2022/11/21 06:21:18;;;;;;;;;;;10.20;70.00;;;;;;4990217;28;19938;-47
2022/11/21 06:23:45;;;;;;;;;;;10.20;70.00;;;;;;4984982;28;19925;-47
2022/11/21 06:26:14;;;;;;;;;;;10.20;69.90;;;;;;4991240;28;20298;-47
2022/11/21 06:28:41;;;;;;;;;;;10.20;69.80;;;;;;4990456;28;20021;-51
2022/11/21 06:31:21;;;;;;;;;;;10.10;69.70;;;;;;4991384;28;19926;-49
2022/11/21 06:33:55;;;;;;;;;;;10.10;69.70;;;;;;4990395;28;20384;-48
2022/11/21 06:36:22;;;;;;;;;;;10.10;69.70;;;;;;4991270;28;19926;-51
2022/11/21 06:38:49;;;;;;;;;;;10.10;69.80;;;;;;4990563;28;19937;-48
2022/11/21 06:41:21;;;;;;;;;;;10.00;69.70;;;;;;4991418;28;19976;-51
2022/11/21 06:43:48;;;;;;;;;;;10.00;69.70;;;;;;4991106;28;19932;-51
2022/11/21 06:46:17;;;;;;;;;;;10.00;69.70;;;;;;4990690;28;19933;-46
2022/11/21 06:48:45;;;;;;;;;;;10.00;69.70;;;;;;4991608;28;19925;-48
2022/11/21 06:51:15;;;;;;;;;;;10.00;69.70;;;;;;4991138;28;19948;-48
2022/11/21 06:53:45;;;;;;;;;;;9.90;69.80;;;;;;4991498;28;20060;-48
2022/11/21 06:56:11;;;;;;;;;;;9.90;69.80;;;;;;4989201;28;19926;-50
2022/11/21 06:58:38;;;;;;;;;;;9.90;69.80;;;;;;4991547;28;20460;-47
2022/11/21 07:01:08;;;;;;;;;;;9.90;69.90;;;;;;4991886;28;20465;-49
2022/11/21 07:03:35;;;;;;;;;;;9.90;69.90;;;;;;4991746;28;19968;-46
2022/11/21 07:06:04;;;;;;;;;;;9.90;69.90;;;;;;4990719;28;20016;-47
2022/11/21 07:08:35;;;;;;;;;;;9.90;69.90;;;;;;4991631;28;20309;-52
2022/11/21 07:11:07;;;;;;;;;;;9.80;69.90;;;;;;4994383;28;19932;-52
2022/11/21 07:13:53;;;;;;;;;;;9.90;70.00;;;;;;4995687;28;20408;-50
2022/11/21 07:16:20;;;;;;;;;;;9.80;70.00;;;;;;4993495;28;19926;-47
2022/11/21 07:18:46;;;;;;;;;;;9.90;70.20;;;;;;4995153;28;20024;-49
2022/11/21 07:21:15;;;;;;;;;;;9.80;70.20;;;;;;4995281;28;19926;-50
2022/11/21 07:23:47;;;;;;;;;;;9.90;70.30;;;;;;4994277;28;19937;-47
2022/11/21 07:26:14;;;;;;;;;;;9.90;70.40;;;;;;4994737;28;19926;-51
2022/11/21 07:28:42;;;;;;;;;;;9.90;70.40;;;;;;4994741;28;19926;-48
2022/11/21 07:31:11;;;;;;;;;;;9.90;70.30;;;;;;4995089;28;19939;-51
2022/11/21 07:33:42;;;;;;;;;;;9.90;70.40;;;;;;4990220;28;19936;-51
2022/11/21 07:36:09;;;;;;;;;;;9.90;70.50;;;;;;4994855;28;19988;-51
2022/11/21 07:38:37;;;;;;;;;;;9.90;70.40;;;;;;4994825;28;19936;-52
2022/11/21 07:41:04;;;;;;;;;;;9.90;70.30;;;;;;4994919;28;20397;-51
2022/11/21 07:43:31;;;;;;;;;;;9.90;70.30;;;;;;4994028;28;20020;-47
2022/11/21 07:46:03;;;;;;;;;;;9.90;70.20;;;;;;4994507;28;19973;-48
2022/11/21 07:48:29;;;;;;;;;;;9.90;70.20;;;;;;4994442;28;19926;-48
2022/11/21 07:51:01;;;;;;;;;;;9.90;70.30;;;;;;4992503;28;19926;-51
2022/11/21 07:53:28;;;;;;;;;;;9.90;70.50;;;;;;4993774;28;19975;-48
2022/11/21 07:55:56;;;;;;;;;;;10.00;70.60;;;;;;4994228;28;19933;-52
2022/11/21 07:58:26;;;;;;;;;;;10.00;70.70;;;;;;4994328;28;19926;-51
2022/11/21 08:00:56;;;;;;;;;;;10.00;70.70;;;;;;4994268;28;19932;-48
2022/11/21 08:03:24;;;;;;;;;;;10.00;70.80;;;;;;4993455;28;20397;-51
2022/11/21 08:05:52;;;;;;;;;;;10.10;70.80;;;;;;4993973;28;20012;-51
2022/11/21 08:08:19;;;;;;;;;;;10.10;70.80;;;;;;4994519;28;20423;-52
2022/11/21 08:10:46;;;;;;;;;;;10.10;70.70;;;;;;4993756;28;19930;-51
2022/11/21 08:13:17;;;;;;;;;;;10.20;70.80;;;;;;4989842;28;19933;-48
2022/11/21 08:15:46;;;;;;;;;;;10.20;70.60;;;;;;4994254;28;19926;-48
2022/11/21 08:18:14;;;;;;;;;;;10.20;70.60;;;;;;4993240;28;19925;-48
2022/11/21 08:20:44;;;;;;;;;;;10.20;70.60;;;;;;4993377;28;19956;-51
2022/11/21 08:23:11;;;;;;;;;;;10.20;70.70;;;;;;4987120;28;19926;-51
2022/11/21 08:25:38;;;;;;;;;;;10.30;70.70;;;;;;4993966;28;20386;-48
2022/11/21 08:28:08;;;;;;;;;;;10.30;70.60;;;;;;4992931;28;19926;-47
2022/11/21 08:30:38;;;;;;;;;;;10.30;70.60;;;;;;4992715;28;19933;-51
2022/11/21 08:33:05;;;;;;;;;;;10.40;70.80;;;;;;4993707;28;20012;-51
2022/11/21 08:35:34;;;;;;;;;;;10.40;70.70;;;;;;4993066;28;20317;-50
2022/11/21 08:38:06;;;;;;;;;;;10.40;70.60;;;;;;4992768;28;19926;-51
2022/11/21 08:40:35;;;;;;;;;;;10.40;70.50;;;;;;4993482;28;19952;-51
2022/11/21 08:43:08;;;;;;;;;;;10.40;70.30;;;;;;4993594;28;19976;-52
2022/11/21 08:45:38;;;;;;;;;;;10.40;70.00;;;;;;4993422;28;19930;-51
2022/11/21 08:48:08;;;;;;;;;;;10.40;69.90;;;;;;4992256;28;19925;-51
2022/11/21 08:50:38;;;;;;;;;;;10.40;69.80;;;;;;4992255;28;19926;-52
2022/11/21 08:53:05;;;;;;;;;;;10.40;69.70;;;;;;4991453;28;19981;-52
2022/11/21 08:55:38;;;;;;;;;;;10.30;69.70;;;;;;4993155;28;19933;-50
2022/11/21 08:58:11;;;;;;;;;;;10.30;69.70;;;;;;4992535;28;19932;-50
2022/11/21 09:00:40;;;;;;;;;;;10.30;69.70;;;;;;4990285;28;20028;-50
2022/11/21 09:03:12;;;;;;;;;;;10.20;69.70;;;;;;4993171;28;19932;-51
2022/11/21 09:05:45;;;;;;;;;;;10.20;69.70;;;;;;4992072;28;20306;-51
2022/11/21 09:08:15;;;;;;;;;;;10.20;69.80;;;;;;4992070;28;19925;-51
2022/11/21 09:10:43;;;;;;;;;;;10.20;69.90;;;;;;4992938;28;20020;-52
2022/11/21 09:13:11;;;;;;;;;;;10.10;70.00;;;;;;4992880;28;19930;-49
2022/11/21 09:18:23;;;;;;;;;;;10.20;70.20;;;;;;4992714;28;19930;-51
2022/11/21 09:20:50;;;;;;;;;;;10.10;70.20;;;;;;4992883;28;19929;-51
2022/11/21 09:23:21;;;;;;;;;;;10.10;70.20;;;;;;4992976;28;19972;-50
2022/11/21 09:25:48;;;;;;;;;;;10.10;70.20;;;;;;4991521;28;19960;-52
2022/11/21 09:28:15;;;;;;;;;;;10.20;70.40;;;;;;4988371;28;19926;-48
2022/11/21 09:30:42;;;;;;;;;;;10.20;70.40;;;;;;4992405;28;19979;-51
2022/11/21 09:33:12;;;;;;;;;;;10.20;70.60;;;;;;4992145;28;20388;-51
2022/11/21 09:35:39;;;;;;;;;;;10.20;70.80;;;;;;4990729;28;19933;-52
2022/11/21 09:38:13;;;;;;;;;;;10.30;70.80;;;;;;4992640;28;19957;-52
2022/11/21 09:40:44;;;;;;;;;;;10.30;70.80;;;;;;4992600;28;20013;-50
2022/11/21 09:43:22;;;;;;;;;;;10.30;70.80;;;;;;4991472;28;19925;-52
2022/11/21 09:46:01;;;;;;;;;;;10.40;70.90;;;;;;4991445;28;19930;-51
2022/11/21 09:48:34;;;;;;;;;;;10.50;71.20;;;;;;4992286;28;19932;-51
2022/11/21 09:51:04;;;;;;;;;;;10.60;71.20;;;;;;4991637;28;19929;-50
2022/11/21 09:53:36;;;;;;;;;;;10.60;71.20;;;;;;4991751;28;21323;-51
2022/11/21 09:56:10;;;;;;;;;;;10.70;71.00;;;;;;4984185;28;19933;-51
2022/11/21 09:58:38;;;;;;;;;;;10.80;70.90;;;;;;4991433;28;20382;-51
2022/11/21 10:01:11;;;;;;;;;;;10.80;70.50;;;;;;4992275;28;19936;-51
2022/11/21 10:03:49;;;;;;;;;;;10.90;70.30;;;;;;4991268;28;20025;-52
2022/11/21 10:06:18;;;;;;;;;;;10.90;70.20;;;;;;4992071;28;19926;-52
2022/11/21 10:09:08;;;;;;;;;;;10.90;70.00;;;;;;4992049;28;19949;-51
2022/11/21 10:14:45;;;;;;;;;;;10.90;69.60;;;;;;4991931;28;19926;-51
2022/11/21 10:17:34;;;;;;;;;;;10.90;69.50;;;;;;4991792;28;19956;-52
2022/11/21 10:20:24;;;;;;;;;;;10.90;69.50;;;;;;4992297;28;20401;-50
2022/11/21 10:23:00;;;;;;;;;;;10.90;69.50;;;;;;4990878;28;19949;-50
2022/11/21 10:25:34;;;;;;;;;;;10.90;69.60;;;;;;4992117;28;19933;-49
2022/11/21 10:28:09;;;;;;;;;;;10.90;69.70;;;;;;4991769;28;19926;-49
2022/11/21 10:30:39;;;;;;;;;;;10.90;69.80;;;;;;4991321;28;19971;-50
2022/11/21 10:33:11;;;;;;;;;;;10.90;69.80;;;;;;4990694;28;19926;-50
2022/11/21 10:35:40;;;;;;;;;;;10.90;69.90;;;;;;4991047;28;19980;-51
2022/11/21 10:38:17;;;;;;;;;;;11.00;69.90;;;;;;4972530;28;20350;-51
2022/11/21 10:40:46;;;;;;;;;;;11.00;69.80;;;;;;4990463;28;20129;-52
2022/11/21 10:46:12;;;;;;;;;;;11.10;69.60;;;;;;4988589;28;19976;-47
2022/11/21 10:48:41;;;;;;;;;;;11.10;69.70;;;;;;4994782;28;19955;-51
2022/11/21 10:51:18;;;;;;;;;;;11.10;69.70;;;;;;4994895;28;20367;-48
2022/11/21 10:56:36;;;;;;;;;;;11.20;70.00;;;;;;4995262;28;19930;-49
2022/11/21 10:59:10;;;;;;;;;;;11.20;70.00;;;;;;4994675;28;20344;-51
2022/11/21 11:01:37;;;;;;;;;;;11.30;70.10;;;;;;4994488;28;20286;-51
2022/11/21 11:04:09;;;;;;;;;;;11.40;70.30;;;;;;4987632;28;20318;-51
2022/11/21 11:06:58;;;;;;;;;;;11.50;70.20;;;;;;4995009;28;19926;-50
2022/11/21 11:09:29;;;;;;;;;;;11.60;70.10;;;;;;4994756;28;19929;-49
2022/11/21 11:12:16;;;;;;;;;;;11.60;69.90;;;;;;4993943;28;19926;-51
2022/11/21 11:14:53;;;;;;;;;;;11.80;70.00;;;;;;4995263;28;20394;-48
2022/11/21 11:17:32;;;;;;;;;;;11.80;69.80;;;;;;4994993;28;19932;-52
2022/11/21 11:20:06;;;;;;;;;;;11.90;69.70;;;;;;4994915;28;19936;-50
2022/11/21 11:22:32;;;;;;;;;;;12.00;69.50;;;;;;4988617;28;19933;-49
2022/11/21 11:25:02;;;;;;;;;;;12.00;69.40;;;;;;4994581;28;20412;-51
2022/11/21 11:27:36;;;;;;;;;;;12.10;69.20;;;;;;4993996;28;20396;-52
2022/11/21 11:30:13;;;;;;;;;;;12.10;69.20;;;;;;4995096;28;19926;-52
2022/11/21 11:32:40;;;;;;;;;;;12.20;69.00;;;;;;4994735;28;19925;-49
2022/11/21 11:35:07;;;;;;;;;;;12.20;68.80;;;;;;4994543;28;19933;-50
2022/11/21 11:37:50;;;;;;;;;;;12.10;68.60;;;;;;4992992;28;19925;-46
2022/11/21 11:40:19;;;;;;;;;;;12.20;68.50;;;;;;4988222;28;19936;-48
2022/11/21 11:48:44;;;;;;;;;;;12.20;68.10;;;;;;4994392;28;20400;-52
2022/11/21 11:51:41;;;;;;;;;;;12.10;67.90;;;;;;4993778;28;19937;-48
2022/11/21 11:54:17;;;;;;;;;;;12.10;67.90;;;;;;4990093;28;20326;-47
2022/11/21 11:56:44;;;;;;;;;;;12.10;67.90;;;;;;4992571;28;19953;-49
2022/11/21 11:59:20;;;;;;;;;;;12.10;67.80;;;;;;4994461;28;19926;-51
2022/11/21 12:01:59;;;;;;;;;;;12.10;67.90;;;;;;4993184;28;20364;-50
2022/11/21 12:04:46;;;;;;;;;;;12.00;67.60;;;;;;4993795;28;19981;-48
2022/11/21 12:07:19;;;;;;;;;;;12.00;67.60;;;;;;4993729;28;20012;-51
2022/11/21 12:10:17;;;;;;;;;;;12.00;67.60;;;;;;4986739;28;20017;-51
2022/11/21 12:12:49;;;;;;;;;;;12.00;67.40;;;;;;4994295;28;19926;-48
2022/11/21 12:18:21;;;;;;;;;;;12.00;67.50;;;;;;4990714;28;19933;-50
2022/11/21 12:21:06;;;;;;;;;;;12.00;67.50;;;;;;4994152;28;20024;-48
2022/11/21 12:23:51;;;;;;;;;;;11.90;67.40;;;;;;4992901;28;19926;-49
2022/11/21 12:26:27;;;;;;;;;;;11.90;67.40;;;;;;4991181;28;19933;-51
2022/11/21 12:29:02;;;;;;;;;;;11.90;67.40;;;;;;4993643;28;19926;-52
2022/11/21 12:31:32;;;;;;;;;;;11.90;67.50;;;;;;4993450;28;20362;-52
2022/11/21 12:34:08;;;;;;;;;;;12.00;67.70;;;;;;4991428;28;19965;-48
2022/11/21 12:36:37;;;;;;;;;;;12.00;67.70;;;;;;4993409;28;19932;-47
2022/11/21 12:39:03;;;;;;;;;;;12.00;67.80;;;;;;4993635;28;20416;-49
2022/11/21 12:44:28;;;;;;;;;;;12.30;67.70;;;;;;5013200;28;19929;-50
2022/11/21 12:47:05;;;;;;;;;;;12.10;67.60;;;;;;5012880;28;20021;-50
2022/11/21 12:55:21;;;;;;;;;;;12.30;67.40;;;;;;5020301;28;19925;-49
2022/11/21 12:57:55;;;;;;;;;;;12.30;67.40;;;;;;5020809;28;19967;-47
2022/11/21 13:00:28;;;;;;;;;;;12.40;67.40;;;;;;5012964;28;19941;-49
2022/11/21 13:02:56;;;;;;;;;;;12.40;67.40;;;;;;5023431;28;19925;-46
2022/11/21 13:05:30;;;;;;;;;;;12.50;67.50;;;;;;5026271;28;19926;-50
2022/11/21 13:08:11;;;;;;;;;;;12.60;67.60;;;;;;5030441;28;20407;-47
2022/11/21 13:10:50;;;;;;;;;;;12.60;67.60;;;;;;5027205;28;19983;-50
2022/11/21 13:13:31;;;;;;;;;;;12.70;67.40;;;;;;5032592;28;19925;-50
2022/11/21 13:16:01;;;;;;;;;;;12.80;67.40;;;;;;5023839;28;19943;-46
2022/11/21 13:18:30;;;;;;;;;;;12.80;67.30;;;;;;5032316;28;19929;-50
2022/11/21 13:20:56;;;;;;;;;;;12.80;67.20;;;;;;5026631;28;20300;-47
2022/11/21 13:23:40;;;;;;;;;;;12.90;67.20;;;;;;5025028;28;19929;-47
2022/11/21 13:26:24;;;;;;;;;;;12.90;67.00;;;;;;5012406;28;19925;-50
2022/11/21 13:29:11;;;;;;;;;;;13.00;67.00;;;;;;5016549;28;19929;-49
2022/11/21 13:31:43;;;;;;;;;;;12.90;66.80;;;;;;5031491;28;19932;-46
2022/11/21 13:34:31;;;;;;;;;;;13.10;66.90;;;;;;5023010;28;19925;-47
2022/11/21 13:36:58;;;;;;;;;;;13.10;66.80;;;;;;5031812;28;19968;-45
2022/11/21 13:39:26;;;;;;;;;;;13.10;66.70;;;;;;5029495;28;19932;-49
2022/11/21 13:44:46;;;;;;;;;;;13.10;66.60;;;;;;5031991;28;19925;-50
2022/11/21 13:47:25;;;;;;;;;;;13.10;66.50;;;;;;5022448;28;19932;-47
2022/11/21 13:49:51;;;;;;;;;;;13.10;66.50;;;;;;5018480;28;19929;-46
2022/11/21 13:52:21;;;;;;;;;;;13.20;66.50;;;;;;5021849;28;19933;-47
2022/11/21 13:55:06;;;;;;;;;;;13.20;66.60;;;;;;5011808;28;19926;-47
2022/11/21 13:57:42;;;;;;;;;;;13.20;66.60;;;;;;5011620;28;19936;-46
2022/11/21 14:00:21;;;;;;;;;;;13.10;66.40;;;;;;4992977;28;19948;-49
2022/11/21 14:03:06;;;;;;;;;;;13.20;66.40;;;;;;5029651;28;20028;-46
2022/11/21 14:06:02;;;;;;;;;;;13.20;66.40;;;;;;5011630;28;19926;-45
2022/11/21 14:08:29;;;;;;;;;;;13.10;66.20;;;;;;5017881;28;19926;-47
2022/11/21 14:10:58;;;;;;;;;;;13.10;66.20;;;;;;5027982;28;19925;-48
2022/11/21 14:13:27;;;;;;;;;;;13.10;66.00;;;;;;5026141;28;20320;-47
2022/11/21 14:16:11;;;;;;;;;;;13.10;66.00;;;;;;5024188;28;20419;-46
2022/11/21 14:18:41;;;;;;;;;;;13.10;66.00;;;;;;5022454;28;19925;-50
2022/11/21 14:21:16;;;;;;;;;;;13.00;65.90;;;;;;5016026;28;19925;-49
2022/11/21 14:23:45;;;;;;;;;;;13.10;65.90;;;;;;5029054;28;20312;-50
2022/11/21 14:26:18;;;;;;;;;;;13.00;65.90;;;;;;5033195;28;19925;-50
2022/11/21 14:28:52;;;;;;;;;;;13.00;66.00;;;;;;5033459;28;19925;-49
2022/11/21 14:31:18;;;;;;;;;;;12.90;65.90;;;;;;5029290;28;20016;-50
2022/11/21 14:33:46;;;;;;;;;;;12.90;65.90;;;;;;5032759;28;20612;-47
2022/11/21 14:36:14;;;;;;;;;;;12.90;65.90;;;;;;5030801;28;19935;-47
2022/11/21 14:38:42;;;;;;;;;;;12.80;65.90;;;;;;5026964;28;20297;-50
2022/11/21 14:41:24;;;;;;;;;;;12.80;65.90;;;;;;5035227;28;20020;-50
2022/11/21 14:43:57;;;;;;;;;;;12.70;65.70;;;;;;5029689;28;20452;-49
2022/11/21 14:46:25;;;;;;;;;;;12.70;65.80;;;;;;5032248;28;19925;-51
2022/11/21 14:48:52;;;;;;;;;;;12.60;65.70;;;;;;5025435;28;19926;-49
2022/11/21 14:51:21;;;;;;;;;;;12.60;65.70;;;;;;5028817;28;19929;-49
2022/11/21 14:53:49;;;;;;;;;;;12.50;65.70;;;;;;5017075;28;19926;-50
2022/11/21 14:56:23;;;;;;;;;;;12.50;65.70;;;;;;4997423;28;19934;-49
2022/11/21 14:58:50;;;;;;;;;;;12.40;65.60;;;;;;5019112;28;19925;-47
2022/11/21 15:01:23;;;;;;;;;;;12.30;65.60;;;;;;5034722;28;20016;-46
2022/11/21 15:03:57;;;;;;;;;;;12.30;65.70;;;;;;5027834;28;19983;-46
2022/11/21 15:06:28;;;;;;;;;;;12.20;65.70;;;;;;5034542;28;19925;-45
2022/11/21 15:09:02;;;;;;;;;;;12.20;65.80;;;;;;5026366;28;19932;-49
2022/11/21 15:11:53;;;;;;;;;;;12.10;65.90;;;;;;5030108;28;20032;-48
2022/11/21 15:14:21;;;;;;;;;;;12.10;66.00;;;;;;5028852;28;19984;-46